createdAt,value
2023-11-17T00:01:37.860Z,11.00
2023-11-17T00:03:41.944Z,10.13
2023-11-17T00:05:45.143Z,10.50
2023-11-17T00:07:46.953Z,10.10
2023-11-17T00:09:49.712Z,11.17
2023-11-17T00:11:53.813Z,9.83
2023-11-17T00:13:57.819Z,10.07
2023-11-17T00:16:01.014Z,9.43
2023-11-17T00:18:03.855Z,9.57
2023-11-17T00:20:07.550Z,10.17
2023-11-17T00:22:11.167Z,10.70
2023-11-17T00:24:14.029Z,9.57
2023-11-17T00:26:16.763Z,8.60
2023-11-17T00:28:21.309Z,9.00
2023-11-17T00:30:24.392Z,9.57
2023-11-17T00:32:27.456Z,9.90
2023-11-17T00:34:30.252Z,9.17
2023-11-17T00:36:32.989Z,9.57
2023-11-17T00:38:37.480Z,9.17
2023-11-17T00:40:40.288Z,9.57
2023-11-17T00:42:43.037Z,8.77
2023-11-17T00:44:47.845Z,8.83
2023-11-17T00:46:49.960Z,8.60
2023-11-17T00:48:52.753Z,9.30
2023-11-17T00:50:56.480Z,8.47
2023-11-17T00:53:05.669Z,8.03
2023-11-17T00:55:08.987Z,9.10
2023-11-17T00:57:12.685Z,8.37
2023-11-17T00:59:14.818Z,7.90
2023-11-17T01:01:19.863Z,7.80
2023-11-17T01:03:22.746Z,7.80
2023-11-17T01:05:26.652Z,7.60
2023-11-17T01:07:30.462Z,7.87
2023-11-17T01:09:33.416Z,7.70
2023-11-17T01:11:36.341Z,7.43
2023-11-17T01:13:39.175Z,7.30
2023-11-17T01:15:42.028Z,6.83
2023-11-17T01:17:46.554Z,6.97
2023-11-17T01:19:49.291Z,6.37
2023-11-17T01:21:52.050Z,7.10
2023-11-17T01:23:54.762Z,5.93
2023-11-17T01:25:57.051Z,6.20
2023-11-17T01:28:00.266Z,6.07
2023-11-17T01:30:02.128Z,6.13
2023-11-17T01:32:05.194Z,6.90
2023-11-17T01:34:09.375Z,5.93
2023-11-17T01:36:14.730Z,6.80
2023-11-17T01:38:18.408Z,5.70
2023-11-17T01:40:21.126Z,5.70
2023-11-17T01:42:24.049Z,5.63
2023-11-17T01:44:27.808Z,5.33
2023-11-17T01:46:31.204Z,5.33
2023-11-17T01:48:35.842Z,5.30
2023-11-17T01:50:40.411Z,5.60
2023-11-17T01:52:44.238Z,5.73
2023-11-17T01:54:52.427Z,5.73
2023-11-17T01:56:55.901Z,5.63
2023-11-17T01:58:57.771Z,4.83
2023-11-17T02:01:02.084Z,5.60
2023-11-17T02:03:05.086Z,4.60
2023-11-17T02:05:08.866Z,5.60
2023-11-17T02:07:21.154Z,4.87
2023-11-17T02:09:47.890Z,5.53
2023-11-17T02:11:59.417Z,5.63
2023-11-17T02:14:08.903Z,6.10
2023-11-17T02:16:18.476Z,5.40
2023-11-17T02:18:23.622Z,5.00
2023-11-17T02:20:27.260Z,5.20
2023-11-17T02:22:31.735Z,4.60
2023-11-17T02:24:43.012Z,4.37
2023-11-17T02:26:53.618Z,4.77
2023-11-17T02:29:01.516Z,4.83
2023-11-17T02:31:16.224Z,4.13
2023-11-17T02:33:19.159Z,4.30
2023-11-17T02:35:29.839Z,4.10
2023-11-17T02:37:32.632Z,3.80
2023-11-17T02:39:39.522Z,3.30
2023-11-17T02:41:50.435Z,3.30
2023-11-17T02:43:53.989Z,3.73
2023-11-17T02:45:56.803Z,3.00
2023-11-17T02:48:00.413Z,3.37
2023-11-17T02:50:10.193Z,3.10
2023-11-17T02:52:18.749Z,3.20
2023-11-17T02:54:23.382Z,3.00
2023-11-17T02:56:26.508Z,4.00
2023-11-17T02:58:33.863Z,3.30
2023-11-17T03:00:36.705Z,3.27
2023-11-17T03:02:41.159Z,3.63
2023-11-17T03:04:45.463Z,3.20
2023-11-17T03:06:49.911Z,3.07
2023-11-17T03:08:52.647Z,3.60
2023-11-17T03:11:01.540Z,2.53
2023-11-17T03:13:04.340Z,3.20
2023-11-17T03:15:10.888Z,3.10
2023-11-17T03:17:13.669Z,3.40
2023-11-17T03:19:16.011Z,3.40
2023-11-17T03:21:20.575Z,3.40
2023-11-17T03:23:23.439Z,3.40
2023-11-17T03:25:26.816Z,3.00
2023-11-17T03:27:30.083Z,3.13
2023-11-17T03:29:33.236Z,3.63
2023-11-17T03:31:36.234Z,3.57
2023-11-17T03:33:39.031Z,3.70
2023-11-17T03:35:42.472Z,3.70
2023-11-17T03:37:47.678Z,4.20
2023-11-17T03:39:50.599Z,3.70
2023-11-17T03:41:53.802Z,4.03
2023-11-17T03:43:55.691Z,4.20
2023-11-17T03:46:01.788Z,3.47
2023-11-17T03:48:06.597Z,4.80
2023-11-17T03:50:14.437Z,3.87
2023-11-17T03:52:17.268Z,4.03
2023-11-17T03:54:22.574Z,4.70
2023-11-17T03:56:25.535Z,4.23
2023-11-17T03:58:28.873Z,4.17
2023-11-17T04:00:33.398Z,4.00
2023-11-17T04:02:36.362Z,4.10
2023-11-17T04:04:39.223Z,4.70
2023-11-17T04:06:42.021Z,4.50
2023-11-17T04:08:44.727Z,4.63
2023-11-17T04:10:47.926Z,4.37
2023-11-17T04:12:50.883Z,4.80
2023-11-17T04:14:53.592Z,4.60
2023-11-17T04:16:57.238Z,4.27
2023-11-17T04:18:59.085Z,4.50
2023-11-17T04:21:02.051Z,4.53
2023-11-17T04:23:05.163Z,4.77
2023-11-17T04:25:08.536Z,4.73
2023-11-17T04:27:13.154Z,4.63
2023-11-17T04:29:16.288Z,4.67
2023-11-17T04:31:19.621Z,5.33
2023-11-17T04:33:22.112Z,5.27
2023-11-17T04:35:24.868Z,5.13
2023-11-17T04:37:28.755Z,4.87
2023-11-17T04:39:32.411Z,5.13
2023-11-17T04:41:34.233Z,5.30
2023-11-17T04:43:38.261Z,5.07
2023-11-17T04:45:44.217Z,5.97
2023-11-17T04:47:47.445Z,5.37
2023-11-17T04:49:50.212Z,6.30
2023-11-17T04:51:53.829Z,6.80
2023-11-17T04:53:56.574Z,6.60
2023-11-17T04:55:59.342Z,6.63
2023-11-17T04:58:01.817Z,6.53
2023-11-17T05:00:07.567Z,6.93
2023-11-17T05:02:10.997Z,6.23
2023-11-17T05:04:14.177Z,6.07
2023-11-17T05:06:24.012Z,6.70
2023-11-17T05:08:29.189Z,6.30
2023-11-17T05:10:32.558Z,6.13
2023-11-17T05:12:40.167Z,6.37
2023-11-17T05:14:42.876Z,8.23
2023-11-17T05:16:47.020Z,6.70
2023-11-17T05:18:50.707Z,9.47
2023-11-17T05:20:53.707Z,8.80
2023-11-17T05:22:56.689Z,8.90
2023-11-17T05:25:00.023Z,10.10
2023-11-17T05:27:02.889Z,9.90
2023-11-17T05:29:06.201Z,10.40
2023-11-17T05:31:09.087Z,9.07
2023-11-17T05:33:18.975Z,8.33
2023-11-17T05:35:21.726Z,8.20
2023-11-17T05:37:24.002Z,8.13
2023-11-17T05:39:27.677Z,7.77
2023-11-17T05:41:30.468Z,8.60
2023-11-17T05:43:33.379Z,8.40
2023-11-17T05:45:36.346Z,8.77
2023-11-17T05:47:39.218Z,9.03
2023-11-17T05:49:46.180Z,8.87
2023-11-17T05:51:52.092Z,8.83
2023-11-17T05:53:55.368Z,8.97
2023-11-17T05:55:58.098Z,9.00
2023-11-17T05:58:01.229Z,8.47
2023-11-17T06:00:09.886Z,8.07
2023-11-17T06:02:15.672Z,9.23
2023-11-17T06:04:18.650Z,8.43
2023-11-17T06:06:24.589Z,7.93
2023-11-17T06:08:32.997Z,8.03
2023-11-17T06:10:36.025Z,7.73
2023-11-17T06:12:38.181Z,8.73
2023-11-17T06:14:42.375Z,8.43
2023-11-17T06:16:45.424Z,8.90
2023-11-17T06:18:48.442Z,8.83
2023-11-17T06:20:51.965Z,9.47
2023-11-17T06:22:56.222Z,9.43
2023-11-17T06:24:59.184Z,9.00
2023-11-17T06:27:02.193Z,9.60
2023-11-17T06:29:05.163Z,9.70
2023-11-17T06:31:08.390Z,10.03
2023-11-17T06:33:11.203Z,9.80
2023-11-17T06:35:15.058Z,10.20
2023-11-17T06:37:18.324Z,9.90
2023-11-17T06:39:24.477Z,10.40
2023-11-17T06:41:31.230Z,11.50
2023-11-17T06:43:33.029Z,10.73
2023-11-17T06:45:35.850Z,10.73
2023-11-17T06:47:38.948Z,10.90
2023-11-17T06:49:43.652Z,9.80
2023-11-17T06:51:49.149Z,9.87
2023-11-17T06:53:52.427Z,10.33
2023-11-17T06:55:57.062Z,10.57
2023-11-17T06:57:59.877Z,9.90
2023-11-17T07:00:02.955Z,10.50
2023-11-17T07:02:06.826Z,10.60
2023-11-17T07:04:13.487Z,11.03
2023-11-17T07:06:18.140Z,11.63
2023-11-17T07:08:20.953Z,11.80
2023-11-17T07:10:26.023Z,12.13
2023-11-17T07:12:30.433Z,12.23
2023-11-17T07:14:32.912Z,12.33
2023-11-17T07:16:43.769Z,11.87
2023-11-17T07:18:50.685Z,12.83
2023-11-17T07:20:54.725Z,12.53
2023-11-17T07:22:58.197Z,11.90
2023-11-17T07:25:01.708Z,13.70
2023-11-17T07:27:04.627Z,13.50
2023-11-17T07:29:09.534Z,14.03
2023-11-17T07:31:11.569Z,13.50
2023-11-17T07:33:17.760Z,14.80
2023-11-17T07:35:22.761Z,13.90
2023-11-17T07:37:25.770Z,12.80
2023-11-17T07:39:28.433Z,13.90
2023-11-17T07:41:31.467Z,14.47
2023-11-17T07:43:33.390Z,14.93
2023-11-17T07:45:38.493Z,14.60
2023-11-17T07:47:42.963Z,15.23
2023-11-17T07:49:46.858Z,14.57
2023-11-17T07:51:50.217Z,15.00
2023-11-17T07:53:53.528Z,13.77
2023-11-17T07:55:56.564Z,13.87
2023-11-17T07:57:59.571Z,13.37
2023-11-17T08:00:05.681Z,13.27
2023-11-17T08:02:12.305Z,12.67
2023-11-17T08:04:14.461Z,13.43
2023-11-17T08:06:17.657Z,13.43
2023-11-17T08:08:21.973Z,14.03
2023-11-17T08:10:25.510Z,13.67
2023-11-17T08:12:28.570Z,14.90
2023-11-17T08:14:31.637Z,13.87
2023-11-17T08:16:35.562Z,14.70
2023-11-17T08:18:40.122Z,14.50
2023-11-17T08:20:45.495Z,14.57
2023-11-17T08:22:47.678Z,14.47
2023-11-17T08:24:50.666Z,14.43
2023-11-17T08:26:54.316Z,13.37
2023-11-17T08:28:57.556Z,12.97
2023-11-17T08:31:00.827Z,12.67
2023-11-17T08:33:04.966Z,12.43
2023-11-17T08:35:12.238Z,12.17
2023-11-17T08:37:16.427Z,12.50
2023-11-17T08:39:26.806Z,12.13
2023-11-17T08:41:30.491Z,12.10
2023-11-17T08:43:33.475Z,12.20
2023-11-17T08:45:35.708Z,11.77
2023-11-17T08:47:39.328Z,12.30
2023-11-17T08:49:42.557Z,11.73
2023-11-17T08:51:48.269Z,11.50
2023-11-17T08:53:51.942Z,11.70
2023-11-17T08:55:55.400Z,10.67
2023-11-17T08:57:58.164Z,10.67
2023-11-17T09:00:00.447Z,11.03
2023-11-17T09:02:04.602Z,10.50
2023-11-17T09:04:08.356Z,10.47
2023-11-17T09:06:12.222Z,10.30
2023-11-17T09:08:17.748Z,10.10
2023-11-17T09:10:22.982Z,10.13
2023-11-17T09:12:26.738Z,10.83
2023-11-17T09:14:32.482Z,9.50
2023-11-17T09:16:43.504Z,9.47
2023-11-17T09:18:52.201Z,9.30
2023-11-17T09:20:56.120Z,9.53
2023-11-17T09:22:58.843Z,9.20
2023-11-17T09:25:02.966Z,9.73
2023-11-17T09:27:06.048Z,9.77
2023-11-17T09:29:08.886Z,9.60
2023-11-17T09:31:11.661Z,9.60
2023-11-17T09:33:14.683Z,9.13
2023-11-17T09:35:18.793Z,8.87
2023-11-17T09:37:21.777Z,8.60
2023-11-17T09:39:24.609Z,9.10
2023-11-17T09:41:29.324Z,8.67
2023-11-17T09:43:38.808Z,8.90
2023-11-17T09:45:45.376Z,8.13
2023-11-17T09:47:53.445Z,8.33
2023-11-17T09:49:58.004Z,7.63
2023-11-17T09:52:01.150Z,7.87
2023-11-17T09:54:05.500Z,8.03
2023-11-17T09:56:10.837Z,8.20
2023-11-17T09:58:15.102Z,8.07
2023-11-17T10:00:21.874Z,7.77
2023-11-17T10:02:24.546Z,7.33
2023-11-17T10:04:27.573Z,6.90
2023-11-17T10:06:32.089Z,6.70
2023-11-17T10:08:36.193Z,6.47
2023-11-17T10:10:43.478Z,7.00
2023-11-17T10:12:48.501Z,6.03
2023-11-17T10:14:54.573Z,6.57
2023-11-17T10:16:59.309Z,6.63
2023-11-17T10:19:03.225Z,5.97
2023-11-17T10:21:06.765Z,6.10
2023-11-17T10:23:08.938Z,6.23
2023-11-17T10:25:15.001Z,5.90
2023-11-17T10:27:21.146Z,5.23
2023-11-17T10:29:25.853Z,5.07
2023-11-17T10:31:33.212Z,4.97
2023-11-17T10:33:41.271Z,4.40
2023-11-17T10:35:45.145Z,4.60
2023-11-17T10:37:48.423Z,3.90
2023-11-17T10:40:00.641Z,3.17
2023-11-17T10:42:18.562Z,3.30
2023-11-17T10:44:34.408Z,3.70
2023-11-17T10:46:42.138Z,4.00
2023-11-17T10:48:45.393Z,3.40
2023-11-17T10:50:48.161Z,4.63
2023-11-17T10:52:50.004Z,3.20
2023-11-17T10:54:53.716Z,2.87
2023-11-17T10:57:11.497Z,2.80
2023-11-17T10:59:17.281Z,3.20
2023-11-17T11:01:21.803Z,3.20
2023-11-17T11:03:30.304Z,3.20
2023-11-17T11:05:32.901Z,2.70
2023-11-17T11:07:44.351Z,3.80
2023-11-17T11:09:47.292Z,3.17
2023-11-17T11:11:51.523Z,3.40
2023-11-17T11:13:58.314Z,3.47
2023-11-17T11:16:06.599Z,4.00
2023-11-17T11:18:16.260Z,3.73
2023-11-17T11:20:23.801Z,4.03
2023-11-17T11:22:29.239Z,3.20
2023-11-17T11:24:37.564Z,2.70
2023-11-17T11:26:42.561Z,2.43
2023-11-17T11:28:46.410Z,2.50
2023-11-17T11:30:50.803Z,2.33
2023-11-17T11:32:54.096Z,2.20
2023-11-17T11:34:58.322Z,2.13
2023-11-17T11:37:04.328Z,2.40
2023-11-17T11:39:07.720Z,2.50
2023-11-17T11:41:13.245Z,2.70
2023-11-17T11:43:16.904Z,2.40
2023-11-17T11:45:20.197Z,3.00
2023-11-17T11:47:23.500Z,2.43
2023-11-17T11:49:26.485Z,2.23
2023-11-17T11:51:31.530Z,2.70
2023-11-17T11:53:37.682Z,2.60
2023-11-17T11:55:40.544Z,2.43
2023-11-17T11:57:43.419Z,2.87
2023-11-17T11:59:46.900Z,2.73
2023-11-17T12:01:52.291Z,2.80
2023-11-17T12:04:00.899Z,2.70
2023-11-17T12:06:05.122Z,2.63
2023-11-17T12:08:23.585Z,2.80
2023-11-17T12:10:37.018Z,3.30
2023-11-17T12:12:42.487Z,2.77
2023-11-17T12:14:47.162Z,2.70
2023-11-17T12:16:56.431Z,2.73
2023-11-17T12:19:00.679Z,2.87
2023-11-17T12:21:22.388Z,2.60
2023-11-17T12:23:49.600Z,2.87
2023-11-17T12:25:53.887Z,3.13
2023-11-17T12:27:56.961Z,3.00
2023-11-17T12:30:01.949Z,3.03
2023-11-17T12:32:04.957Z,3.50
2023-11-17T12:34:08.014Z,3.03
2023-11-17T12:36:14.633Z,2.90
2023-11-17T12:38:17.792Z,2.93
2023-11-17T12:40:21.526Z,3.20
2023-11-17T12:42:25.756Z,3.27
2023-11-17T12:44:29.381Z,3.10
2023-11-17T12:46:33.637Z,2.87
2023-11-17T12:48:39.757Z,2.97
2023-11-17T12:50:42.876Z,3.20
2023-11-17T12:53:08.066Z,3.10
2023-11-17T12:55:12.375Z,2.93
2023-11-17T12:57:16.215Z,3.13
2023-11-17T12:59:27.655Z,3.00
2023-11-17T13:01:31.819Z,3.20
2023-11-17T13:03:33.845Z,3.77
2023-11-17T13:05:36.726Z,3.80
2023-11-17T13:07:38.653Z,4.33
2023-11-17T13:09:42.427Z,3.87
2023-11-17T13:11:47.714Z,4.00
2023-11-17T13:13:51.319Z,4.20
2023-11-17T13:15:54.427Z,3.90
2023-11-17T13:17:58.332Z,4.20
2023-11-17T13:20:00.285Z,4.13
2023-11-17T13:22:06.185Z,4.00
2023-11-17T13:24:09.479Z,4.40
2023-11-17T13:26:15.914Z,4.00
2023-11-17T13:28:17.771Z,4.00
2023-11-17T13:30:22.472Z,3.63
2023-11-17T13:32:25.714Z,3.30
2023-11-17T13:34:31.384Z,3.70
2023-11-17T13:36:36.433Z,3.67
2023-11-17T13:38:57.358Z,3.77
2023-11-17T13:41:00.284Z,4.07
2023-11-17T13:43:06.804Z,3.90
2023-11-17T13:45:12.159Z,4.17
2023-11-17T13:47:15.160Z,3.60
2023-11-17T13:49:21.083Z,4.20
2023-11-17T13:51:22.936Z,4.47
2023-11-17T13:53:29.264Z,4.47
2023-11-17T13:55:33.305Z,4.43
2023-11-17T13:57:35.432Z,3.97
2023-11-17T13:59:38.270Z,4.43
2023-11-17T14:01:40.277Z,3.80
2023-11-17T14:03:43.600Z,4.20
2023-11-17T14:05:47.816Z,4.03
2023-11-17T14:07:50.642Z,4.13
2023-11-17T14:09:54.137Z,4.40
2023-11-17T14:11:58.563Z,5.50
2023-11-17T14:14:05.728Z,5.70
2023-11-17T14:16:10.255Z,5.70
2023-11-17T14:18:15.844Z,5.97
2023-11-17T14:20:22.804Z,5.30
2023-11-17T14:22:28.053Z,6.20
2023-11-17T14:24:30.814Z,6.13
2023-11-17T14:26:34.267Z,6.60
2023-11-17T14:28:38.541Z,6.70
2023-11-17T14:30:42.267Z,6.97
2023-11-17T14:32:45.181Z,6.37
2023-11-17T14:34:50.224Z,7.10
2023-11-17T14:36:54.281Z,6.70
2023-11-17T14:38:58.799Z,6.80
2023-11-17T14:41:05.763Z,6.90
2023-11-17T14:43:08.598Z,7.47
2023-11-17T14:45:15.782Z,7.03
2023-11-17T14:47:20.053Z,7.47
2023-11-17T14:49:23.281Z,6.63
2023-11-17T14:51:25.236Z,7.93
2023-11-17T14:53:29.223Z,7.80
2023-11-17T14:55:34.924Z,7.57
2023-11-17T14:57:37.815Z,6.80
2023-11-17T14:59:42.477Z,7.70
2023-11-17T15:01:45.377Z,7.97
2023-11-17T15:03:48.191Z,7.40
2023-11-17T15:05:50.084Z,7.53
2023-11-17T15:07:52.864Z,7.97
2023-11-17T15:09:55.816Z,8.13
2023-11-17T15:12:00.239Z,6.80
2023-11-17T15:14:05.331Z,7.60
2023-11-17T15:16:10.895Z,8.57
2023-11-17T15:18:14.413Z,7.83
2023-11-17T15:20:19.008Z,7.77
2023-11-17T15:22:22.235Z,7.30
2023-11-17T15:24:27.945Z,7.23
2023-11-17T15:26:31.142Z,7.13
2023-11-17T15:28:37.211Z,7.63
2023-11-17T15:30:47.107Z,7.40
2023-11-17T15:32:50.231Z,7.63
2023-11-17T15:34:54.806Z,7.20
2023-11-17T15:36:58.607Z,8.03
2023-11-17T15:39:01.822Z,8.63
2023-11-17T15:41:05.120Z,9.43
2023-11-17T15:43:08.437Z,8.83
2023-11-17T15:45:14.656Z,8.37
2023-11-17T15:47:17.367Z,9.10
2023-11-17T15:49:20.348Z,9.47
2023-11-17T15:51:22.920Z,8.97
2023-11-17T15:53:25.675Z,9.97
2023-11-17T15:55:28.715Z,9.80
2023-11-17T15:57:30.517Z,10.70
2023-11-17T15:59:33.262Z,11.03
2023-11-17T16:01:39.638Z,11.13
2023-11-17T16:03:43.290Z,11.93
2023-11-17T16:05:46.032Z,12.37
2023-11-17T16:07:51.087Z,14.47
2023-11-17T16:09:54.936Z,13.33
2023-11-17T16:11:59.830Z,13.70
2023-11-17T16:14:06.987Z,12.80
2023-11-17T16:16:14.214Z,15.17
2023-11-17T16:18:19.223Z,15.77
2023-11-17T16:20:24.874Z,15.10
2023-11-17T16:22:26.773Z,16.13
2023-11-17T16:24:30.044Z,15.53
2023-11-17T16:26:32.883Z,15.63
2023-11-17T16:28:35.629Z,16.17
2023-11-17T16:30:40.537Z,17.13
2023-11-17T16:32:47.931Z,17.07
2023-11-17T16:34:52.255Z,15.57
2023-11-17T16:36:55.613Z,14.70
2023-11-17T16:38:58.686Z,13.40
2023-11-17T16:41:01.573Z,13.33
2023-11-17T16:43:08.685Z,13.87
2023-11-17T16:45:10.751Z,14.93
2023-11-17T16:47:14.928Z,13.43
2023-11-17T16:49:19.639Z,14.07
2023-11-17T16:51:23.741Z,12.90
2023-11-17T16:53:26.536Z,12.90
2023-11-17T16:55:33.998Z,13.17
2023-11-17T16:57:35.827Z,14.40
2023-11-17T16:59:41.647Z,13.77
2023-11-17T17:01:44.429Z,13.60
2023-11-17T17:03:47.287Z,13.50
2023-11-17T17:05:51.006Z,13.80
2023-11-17T17:07:55.113Z,13.27
2023-11-17T17:09:59.143Z,12.57
2023-11-17T17:12:00.961Z,12.33
2023-11-17T17:14:16.662Z,13.73
2023-11-17T17:16:22.977Z,15.83
2023-11-17T17:18:26.247Z,15.57
2023-11-17T17:20:28.158Z,16.17
2023-11-17T17:22:31.083Z,14.33
2023-11-17T17:24:37.544Z,14.70
2023-11-17T17:26:40.382Z,13.80
2023-11-17T17:28:43.133Z,14.67
2023-11-17T17:30:46.013Z,14.33
2023-11-17T17:32:48.675Z,14.13
2023-11-17T17:34:51.682Z,16.33
2023-11-17T17:36:54.600Z,15.60
2023-11-17T17:38:57.311Z,15.97
2023-11-17T17:41:01.597Z,16.83
2023-11-17T17:43:06.313Z,17.53
2023-11-17T17:45:10.899Z,19.93
2023-11-17T17:47:14.537Z,18.27
2023-11-17T17:49:17.837Z,18.30
2023-11-17T17:51:20.827Z,18.57
2023-11-17T17:53:23.658Z,17.90
2023-11-17T17:55:26.922Z,19.53
2023-11-17T17:57:31.383Z,19.53
2023-11-17T17:59:34.333Z,18.47
2023-11-17T18:01:37.659Z,19.30
2023-11-17T18:03:40.580Z,18.87
2023-11-17T18:05:43.355Z,19.03
2023-11-17T18:07:47.545Z,18.97
2023-11-17T18:09:50.334Z,20.17
2023-11-17T18:11:53.670Z,19.37
2023-11-17T18:13:59.531Z,22.00
2023-11-17T18:16:02.581Z,21.87
2023-11-17T18:18:07.174Z,22.03
2023-11-17T18:20:13.947Z,22.53
2023-11-17T18:22:16.938Z,21.77
2023-11-17T18:24:20.472Z,20.53
2023-11-17T18:26:26.726Z,21.50
2023-11-17T18:28:31.346Z,21.23
2023-11-17T18:30:36.546Z,22.83
2023-11-17T18:32:41.877Z,21.83
2023-11-17T18:34:44.713Z,20.70
2023-11-17T18:36:49.273Z,20.80
2023-11-17T18:38:53.052Z,21.87
2023-11-17T18:40:54.886Z,22.10
2023-11-17T18:42:58.423Z,20.93
2023-11-17T18:45:01.703Z,43.10
2023-11-17T18:47:06.762Z,39.73
2023-11-17T18:49:11.126Z,32.83
2023-11-17T18:51:13.295Z,30.67
2023-11-17T18:53:16.083Z,26.90
2023-11-17T18:55:19.501Z,33.93
2023-11-17T18:57:22.403Z,34.67
2023-11-17T18:59:25.643Z,29.50
2023-11-17T19:01:28.878Z,27.40
2023-11-17T19:03:33.241Z,28.10
2023-11-17T19:05:36.090Z,26.37
2023-11-17T19:07:39.382Z,26.03
2023-11-17T19:09:42.409Z,27.77
2023-11-17T19:11:47.015Z,28.40
2023-11-17T19:13:50.960Z,25.87
2023-11-17T19:15:53.895Z,26.27
2023-11-17T19:17:59.216Z,23.97
2023-11-17T19:20:04.166Z,27.17
2023-11-17T19:22:07.942Z,25.83
2023-11-17T19:24:11.647Z,25.97
2023-11-17T19:26:13.781Z,25.40
2023-11-17T19:28:16.556Z,25.97
2023-11-17T19:30:19.834Z,26.33
2023-11-17T19:32:24.100Z,28.73
2023-11-17T19:34:28.242Z,27.83
2023-11-17T19:36:34.531Z,27.73
2023-11-17T19:38:37.296Z,27.17
2023-11-17T19:40:42.196Z,26.80
2023-11-17T19:42:46.000Z,28.53
2023-11-17T19:44:51.589Z,25.53
2023-11-17T19:46:55.007Z,25.57
2023-11-17T19:48:58.110Z,28.27
2023-11-17T19:51:00.916Z,25.13
2023-11-17T19:53:05.657Z,23.73
2023-11-17T19:55:11.709Z,25.13
2023-11-17T19:57:13.642Z,25.43
2023-11-17T19:59:16.914Z,24.83
2023-11-17T20:01:19.896Z,24.90
2023-11-17T20:03:22.812Z,23.87
2023-11-17T20:05:29.014Z,25.00
2023-11-17T20:07:32.086Z,24.47
2023-11-17T20:09:42.425Z,24.47
2023-11-17T20:11:46.904Z,24.40
2023-11-17T20:13:50.190Z,25.60
2023-11-17T20:15:53.014Z,24.93
2023-11-17T20:17:57.564Z,24.70
2023-11-17T20:19:59.709Z,24.63
2023-11-17T20:22:02.545Z,25.10
2023-11-17T20:24:05.598Z,24.73
2023-11-17T20:26:10.483Z,25.37
2023-11-17T20:28:13.291Z,26.30
2023-11-17T20:30:17.386Z,25.97
2023-11-17T20:32:20.161Z,26.10
2023-11-17T20:34:22.114Z,27.13
2023-11-17T20:36:25.985Z,28.07
2023-11-17T20:38:28.816Z,26.40
2023-11-17T20:40:31.692Z,25.17
2023-11-17T20:42:34.961Z,24.60
2023-11-17T20:44:42.546Z,28.50
2023-11-17T20:46:45.474Z,30.87
2023-11-17T20:48:47.342Z,32.37
2023-11-17T20:50:56.809Z,33.13
2023-11-17T20:53:00.149Z,57.30
2023-11-17T20:55:02.093Z,32.47
2023-11-17T20:57:09.374Z,36.53
2023-11-17T20:59:13.958Z,33.27
2023-11-17T21:01:18.787Z,35.60
2023-11-17T21:03:22.769Z,40.03
2023-11-17T21:05:26.164Z,33.13
2023-11-17T21:07:28.968Z,32.83
2023-11-17T21:09:31.723Z,32.80
2023-11-17T21:11:34.743Z,34.97
2023-11-17T21:13:37.567Z,61.83
2023-11-17T21:15:42.061Z,45.50
2023-11-17T21:17:45.346Z,39.33
2023-11-17T21:19:48.324Z,34.50
2023-11-17T21:21:51.056Z,37.77
2023-11-17T21:23:54.487Z,36.67
2023-11-17T21:25:57.281Z,33.17
2023-11-17T21:28:00.505Z,32.20
2023-11-17T21:30:03.340Z,31.53
2023-11-17T21:32:08.536Z,30.70
2023-11-17T21:34:11.383Z,31.67
2023-11-17T21:36:20.406Z,31.60
2023-11-17T21:38:28.845Z,29.63
2023-11-17T21:40:35.963Z,30.30
2023-11-17T21:42:39.828Z,28.03
2023-11-17T21:44:42.721Z,29.27
2023-11-17T21:46:45.351Z,30.73
2023-11-17T21:48:49.625Z,28.83
2023-11-17T21:50:52.435Z,29.17
2023-11-17T21:52:56.341Z,28.67
2023-11-17T21:54:59.239Z,35.67
2023-11-17T21:57:04.094Z,29.53
2023-11-17T21:59:06.888Z,28.60
2023-11-17T22:01:09.749Z,28.17
2023-11-17T22:03:13.672Z,30.57
2023-11-17T22:05:18.607Z,26.00
2023-11-17T22:07:21.388Z,26.27
2023-11-17T22:09:24.890Z,27.00
2023-11-17T22:11:27.682Z,28.73
2023-11-17T22:13:30.812Z,29.00
2023-11-17T22:15:33.774Z,27.43
2023-11-17T22:17:37.188Z,26.70
2023-11-17T22:19:40.104Z,28.40
2023-11-17T22:21:44.175Z,27.77
2023-11-17T22:23:47.051Z,29.47
2023-11-17T22:25:50.346Z,28.93
2023-11-17T22:27:55.945Z,28.77
2023-11-17T22:29:58.818Z,28.47
2023-11-17T22:32:00.693Z,32.03
2023-11-17T22:34:03.993Z,28.40
2023-11-17T22:36:07.525Z,28.60
2023-11-17T22:38:12.196Z,27.17
2023-11-17T22:40:15.136Z,27.90
2023-11-17T22:42:19.635Z,33.40
2023-11-17T22:44:22.366Z,29.87
2023-11-17T22:46:25.275Z,29.00
2023-11-17T22:48:28.530Z,28.33
2023-11-17T22:50:31.777Z,27.57
2023-11-17T22:52:34.676Z,26.97
2023-11-17T22:54:38.829Z,27.50
2023-11-17T22:56:42.290Z,26.63
2023-11-17T22:58:46.263Z,26.20
2023-11-17T23:00:49.776Z,27.37
2023-11-17T23:02:52.766Z,27.37
2023-11-17T23:04:57.433Z,26.97
2023-11-17T23:07:00.384Z,25.73
2023-11-17T23:09:06.202Z,25.83
2023-11-17T23:11:10.701Z,24.97
2023-11-17T23:13:15.016Z,25.67
2023-11-17T23:15:18.529Z,24.03
2023-11-17T23:17:21.582Z,25.20
2023-11-17T23:19:24.444Z,24.97
2023-11-17T23:21:28.986Z,26.20
2023-11-17T23:23:32.119Z,25.37
2023-11-17T23:25:37.638Z,25.33
2023-11-17T23:27:42.580Z,26.37
2023-11-17T23:29:45.201Z,27.47
2023-11-17T23:31:50.181Z,24.90
2023-11-17T23:33:52.981Z,24.20
2023-11-17T23:35:55.703Z,24.27
2023-11-17T23:38:00.003Z,24.40
2023-11-17T23:40:07.854Z,25.67
2023-11-17T23:42:10.608Z,24.93
2023-11-17T23:44:14.702Z,25.97
2023-11-17T23:46:17.487Z,28.40
2023-11-17T23:48:20.296Z,29.27
2023-11-17T23:50:22.061Z,27.17
2023-11-17T23:52:26.246Z,29.97
2023-11-17T23:54:29.413Z,28.23
2023-11-17T23:56:32.201Z,28.33
2023-11-17T23:58:35.517Z,27.13
